createdAt,value
2019-05-25T00:00:43.124Z,4.90
2019-05-25T00:05:48.987Z,5.62
2019-05-25T00:10:57.243Z,6.00
2019-05-25T00:16:07.566Z,6.30
2019-05-25T00:21:09.633Z,5.83
2019-05-25T00:26:14.118Z,5.92
2019-05-25T00:31:18.816Z,6.00
2019-05-25T00:36:26.525Z,6.47
2019-05-25T00:41:47.381Z,6.40
2019-05-25T00:46:51.891Z,5.90
2019-05-25T00:52:06.063Z,6.17
2019-05-25T00:57:10.708Z,7.40
2019-05-25T01:02:16.061Z,6.53
2019-05-25T01:07:32.931Z,6.62
2019-05-25T01:12:38.490Z,6.70
2019-05-25T01:17:45.947Z,7.05
2019-05-25T01:22:53.794Z,6.92
2019-05-25T01:27:58.851Z,7.55
2019-05-25T01:33:06.510Z,6.55
2019-05-25T01:38:15.535Z,6.95
2019-05-25T01:43:21.856Z,8.23
2019-05-25T01:48:36.299Z,7.72
2019-05-25T01:53:40.930Z,8.75
2019-05-25T01:58:48.608Z,7.10
2019-05-25T02:03:53.236Z,7.72
2019-05-25T02:09:01.783Z,7.72
2019-05-25T02:14:08.947Z,7.28
2019-05-25T02:19:13.597Z,7.78
2019-05-25T02:24:19.193Z,7.85
2019-05-25T02:29:26.471Z,9.05
2019-05-25T02:34:31.092Z,7.60
2019-05-25T02:39:39.704Z,8.15
2019-05-25T02:44:50.518Z,8.50
2019-05-25T02:49:55.066Z,8.23
2019-05-25T02:55:00.165Z,8.58
2019-05-25T03:00:10.382Z,8.93
2019-05-25T03:05:17.114Z,8.73
2019-05-25T03:10:21.976Z,8.20
2019-05-25T03:15:31.594Z,8.58
2019-05-25T03:20:39.315Z,8.25
2019-05-25T03:25:50.041Z,9.25
2019-05-25T03:30:52.996Z,7.97
2019-05-25T03:35:57.634Z,8.63
2019-05-25T03:41:13.283Z,9.18
2019-05-25T03:46:19.991Z,8.98
2019-05-25T03:51:30.116Z,9.23
2019-05-25T03:56:55.182Z,9.20
2019-05-25T04:01:52.611Z,10.28
2019-05-25T04:06:59.201Z,9.35
2019-05-25T04:12:04.971Z,10.20
2019-05-25T04:17:14.120Z,10.82
2019-05-25T04:22:21.335Z,11.45
2019-05-25T04:27:29.746Z,10.32
2019-05-25T04:32:42.157Z,10.35
2019-05-25T04:37:53.120Z,11.18
2019-05-25T04:48:07.514Z,11.95
2019-05-25T04:53:12.003Z,12.05
2019-05-25T04:58:27.213Z,12.28
2019-05-25T05:03:31.737Z,12.07
2019-05-25T05:08:53.455Z,11.33
2019-05-25T05:14:04.664Z,10.68
2019-05-25T05:19:09.647Z,11.53
2019-05-25T05:24:16.526Z,11.48
2019-05-25T05:29:29.328Z,12.82
2019-05-25T05:34:39.302Z,11.90
2019-05-25T05:39:50.217Z,9.83
2019-05-25T05:45:07.817Z,8.28
2019-05-25T05:50:12.605Z,9.33
2019-05-25T05:55:26.591Z,8.30
2019-05-25T06:00:37.744Z,8.48
2019-05-25T06:05:46.482Z,8.25
2019-05-25T06:10:51.130Z,9.63
2019-05-25T06:15:57.196Z,9.35
2019-05-25T06:21:29.352Z,9.45
2019-05-25T06:26:34.981Z,9.48
2019-05-25T06:31:46.879Z,9.13
2019-05-25T06:36:52.949Z,7.55
2019-05-25T06:42:09.936Z,8.65
2019-05-25T06:47:22.262Z,8.33
2019-05-25T06:52:31.132Z,7.58
2019-05-25T06:57:43.011Z,7.10
2019-05-25T07:02:49.597Z,7.12
2019-05-25T07:07:54.873Z,7.12
2019-05-25T07:13:00.399Z,7.50
2019-05-25T07:18:09.752Z,7.78
2019-05-25T07:23:15.547Z,7.60
2019-05-25T07:28:22.297Z,7.62
2019-05-25T07:33:26.957Z,7.90
2019-05-25T07:38:35.705Z,7.55
2019-05-25T07:43:43.184Z,8.05
2019-05-25T07:48:50.479Z,7.75
2019-05-25T07:53:58.004Z,8.70
2019-05-25T07:59:02.470Z,8.60
2019-05-25T08:04:09.678Z,8.20
2019-05-25T08:09:22.172Z,7.87
2019-05-25T08:14:28.208Z,9.13
2019-05-25T08:19:32.885Z,9.85
2019-05-25T08:24:42.081Z,8.40
2019-05-25T08:29:48.273Z,7.90
2019-05-25T08:35:06.253Z,8.85
2019-05-25T08:40:14.287Z,7.40
2019-05-25T08:45:21.284Z,7.40
2019-05-25T08:50:38.134Z,7.08
2019-05-25T08:55:41.979Z,7.67
2019-05-25T09:00:47.903Z,7.08
2019-05-25T09:05:58.325Z,7.12
2019-05-25T09:11:10.445Z,6.40
2019-05-25T09:16:19.037Z,6.90
2019-05-25T09:21:29.302Z,6.03
2019-05-25T09:26:35.528Z,5.87
2019-05-25T09:31:45.987Z,6.53
2019-05-25T09:36:50.508Z,7.10
2019-05-25T09:41:57.629Z,7.42
2019-05-25T09:47:06.045Z,6.67
2019-05-25T09:52:10.526Z,7.42
2019-05-25T09:57:17.709Z,7.53
2019-05-25T10:02:22.309Z,7.58
2019-05-25T10:07:31.523Z,7.85
2019-05-25T10:12:39.720Z,7.45
2019-05-25T10:17:45.780Z,8.35
2019-05-25T10:22:50.278Z,7.53
2019-05-25T10:27:54.843Z,7.75
2019-05-25T10:33:00.112Z,7.42
2019-05-25T10:38:06.349Z,6.92
2019-05-25T10:43:10.924Z,6.40
2019-05-25T10:48:34.397Z,6.12
2019-05-25T10:53:48.563Z,5.22
2019-05-25T10:59:02.834Z,6.00
2019-05-25T11:03:59.844Z,6.20
2019-05-25T11:09:27.369Z,6.05
2019-05-25T11:14:34.692Z,6.50
2019-05-25T11:19:40.751Z,5.72
2019-05-25T11:24:47.066Z,5.72
2019-05-25T11:29:51.564Z,6.15
2019-05-25T11:35:00.212Z,6.00
2019-05-25T11:40:09.418Z,6.40
2019-05-25T11:45:14.649Z,5.55
2019-05-25T11:50:21.687Z,5.00
2019-05-25T11:55:30.215Z,5.28
2019-05-25T12:00:36.289Z,4.85
2019-05-25T12:05:45.949Z,5.10
2019-05-25T12:10:51.208Z,4.80
2019-05-25T12:15:56.449Z,5.17
2019-05-25T12:21:17.312Z,5.20
2019-05-25T12:26:25.740Z,4.50
2019-05-25T12:31:40.834Z,5.15
2019-05-25T12:36:48.712Z,4.87
2019-05-25T12:41:53.199Z,6.55
2019-05-25T12:46:57.582Z,6.15
2019-05-25T12:52:01.944Z,5.67
2019-05-25T12:57:13.663Z,5.05
2019-05-25T13:02:18.180Z,4.55
2019-05-25T13:07:22.889Z,4.55
2019-05-25T13:12:30.517Z,4.85
2019-05-25T13:17:45.428Z,5.67
2019-05-25T13:23:11.197Z,5.20
2019-05-25T13:28:21.504Z,5.70
2019-05-25T13:33:38.922Z,7.67
2019-05-25T13:38:45.155Z,6.10
2019-05-25T13:43:54.063Z,5.83
2019-05-25T13:49:00.160Z,5.45
2019-05-25T13:54:06.782Z,6.03
2019-05-25T13:59:16.114Z,6.30
2019-05-25T14:04:20.765Z,6.33
2019-05-25T14:09:31.510Z,6.10
2019-05-25T14:14:39.180Z,6.55
2019-05-25T14:19:58.970Z,6.00
2019-05-25T14:25:09.904Z,6.75
2019-05-25T14:35:23.948Z,6.67
2019-05-25T14:40:33.204Z,5.78
2019-05-25T14:45:37.583Z,4.83
2019-05-25T14:50:43.007Z,3.77
2019-05-25T14:55:47.551Z,5.08
2019-05-25T15:00:52.010Z,4.00
2019-05-25T15:05:59.246Z,3.58
2019-05-25T15:11:08.269Z,4.03
2019-05-25T15:16:14.808Z,3.55
2019-05-25T15:21:22.469Z,3.87
2019-05-25T15:26:30.311Z,4.67
2019-05-25T15:31:40.063Z,1.27
2019-05-25T15:36:46.452Z,2.30
2019-05-25T15:41:52.155Z,1.55
2019-05-25T15:46:59.133Z,0.93
2019-05-25T15:52:08.476Z,1.72
2019-05-25T15:57:16.654Z,1.10
2019-05-25T16:02:35.730Z,1.30
2019-05-25T16:07:32.693Z,1.40
2019-05-25T16:12:42.650Z,1.30
2019-05-25T16:17:51.423Z,1.40
2019-05-25T16:22:55.809Z,1.77
2019-05-25T16:28:00.202Z,2.30
2019-05-25T16:33:12.188Z,2.27
2019-05-25T16:38:11.264Z,1.77
2019-05-25T16:43:15.888Z,1.72
2019-05-25T16:48:20.264Z,2.65
2019-05-25T16:53:26.414Z,2.55
2019-05-25T16:58:34.262Z,2.15
2019-05-25T17:03:38.656Z,2.98
2019-05-25T17:08:48.263Z,2.92
2019-05-25T17:13:53.109Z,4.10
2019-05-25T17:19:05.016Z,4.20
2019-05-25T17:24:09.531Z,4.50
2019-05-25T17:29:13.922Z,4.83
2019-05-25T17:34:18.346Z,4.87
2019-05-25T17:39:24.317Z,5.22
2019-05-25T17:44:31.674Z,5.65
2019-05-25T17:49:36.142Z,5.37
2019-05-25T17:54:43.808Z,6.08
2019-05-25T17:59:49.828Z,6.40
2019-05-25T18:04:54.315Z,6.40
2019-05-25T18:09:58.809Z,6.25
2019-05-25T18:15:12.086Z,7.10
2019-05-25T18:20:18.473Z,7.33
2019-05-25T18:31:01.819Z,9.28
2019-05-25T18:36:09.906Z,10.03
2019-05-25T18:41:15.916Z,9.83
2019-05-25T18:46:20.592Z,9.63
2019-05-25T18:51:27.142Z,10.72
2019-05-25T18:56:31.637Z,10.80
2019-05-25T19:01:42.643Z,11.95
2019-05-25T19:06:55.241Z,11.48
2019-05-25T19:12:12.346Z,12.55
2019-05-25T19:17:20.238Z,12.78
2019-05-25T19:22:28.455Z,12.68
2019-05-25T19:27:36.675Z,13.75
2019-05-25T19:32:47.198Z,14.35
2019-05-25T19:37:52.770Z,15.68
2019-05-25T19:42:58.950Z,14.58
2019-05-25T19:48:04.422Z,15.45
2019-05-25T19:53:12.839Z,14.78
2019-05-25T19:58:22.729Z,14.45
2019-05-25T20:03:27.327Z,15.15
2019-05-25T20:08:35.709Z,13.70
2019-05-25T20:13:41.778Z,14.50
2019-05-25T20:18:50.576Z,14.33
2019-05-25T20:24:05.303Z,14.47
2019-05-25T20:29:09.814Z,16.07
2019-05-25T20:34:17.145Z,15.83
2019-05-25T20:39:29.153Z,16.23
2019-05-25T20:44:35.325Z,15.63
2019-05-25T20:49:45.196Z,15.65
2019-05-25T20:54:57.068Z,15.25
2019-05-25T21:00:03.382Z,17.25
2019-05-25T21:05:10.676Z,17.25
2019-05-25T21:10:17.824Z,18.00
2019-05-25T21:15:24.285Z,20.82
2019-05-25T21:20:33.914Z,19.95
2019-05-25T21:25:51.480Z,20.60
2019-05-25T21:31:27.770Z,21.97
2019-05-25T21:36:35.786Z,21.48
2019-05-25T21:41:44.648Z,21.27
2019-05-25T21:46:48.031Z,21.02
2019-05-25T21:51:56.802Z,22.45
2019-05-25T21:57:02.336Z,22.75
2019-05-25T22:02:09.079Z,22.25
2019-05-25T22:07:13.376Z,23.40
2019-05-25T22:12:24.620Z,22.22
2019-05-25T22:17:26.332Z,21.62
2019-05-25T22:22:31.825Z,23.98
2019-05-25T22:27:37.952Z,22.00
2019-05-25T22:32:45.906Z,20.60
2019-05-25T22:37:51.980Z,18.65
2019-05-25T22:42:59.062Z,19.80
2019-05-25T22:48:03.545Z,19.92
2019-05-25T22:53:09.608Z,20.35
2019-05-25T22:58:14.756Z,20.27
2019-05-25T23:03:29.257Z,21.85
2019-05-25T23:08:45.964Z,23.10
2019-05-25T23:13:53.570Z,24.12
2019-05-25T23:18:59.133Z,23.22
2019-05-25T23:24:05.150Z,22.48
2019-05-25T23:29:16.484Z,23.65
2019-05-25T23:34:29.279Z,25.08
2019-05-25T23:39:47.622Z,24.87
2019-05-25T23:44:52.184Z,25.75
2019-05-25T23:49:59.732Z,23.40
2019-05-25T23:55:08.146Z,25.55
